createdAt,value
2022-07-27T00:00:53.753Z,20.44
2022-07-27T00:03:20.786Z,20.42
2022-07-27T00:05:47.831Z,20.41
2022-07-27T00:08:14.878Z,20.38
2022-07-27T00:10:41.916Z,20.37
2022-07-27T00:13:08.931Z,20.36
2022-07-27T00:15:36.029Z,20.35
2022-07-27T00:18:04.017Z,20.34
2022-07-27T00:20:31.903Z,20.28
2022-07-27T00:22:59.109Z,20.30
2022-07-27T00:25:29.122Z,20.28
2022-07-27T00:27:57.315Z,20.24
2022-07-27T00:30:24.751Z,20.19
2022-07-27T00:32:52.196Z,20.18
2022-07-27T00:35:19.541Z,20.16
2022-07-27T00:37:46.660Z,20.15
2022-07-27T00:40:13.691Z,20.14
2022-07-27T00:42:40.728Z,20.16
2022-07-27T00:45:08.353Z,20.11
2022-07-27T00:47:35.362Z,20.12
2022-07-27T00:50:02.518Z,20.11
2022-07-27T00:52:29.548Z,20.10
2022-07-27T00:54:56.569Z,20.09
2022-07-27T00:57:23.749Z,20.04
2022-07-27T00:59:50.741Z,20.05
2022-07-27T01:02:19.394Z,20.03
2022-07-27T01:04:47.526Z,20.01
2022-07-27T01:07:15.110Z,19.99
2022-07-27T01:09:57.121Z,19.98
2022-07-27T01:12:31.641Z,19.93
2022-07-27T01:14:59.183Z,19.91
2022-07-27T01:17:27.010Z,19.90
2022-07-27T01:19:54.097Z,19.86
2022-07-27T01:22:21.178Z,19.86
2022-07-27T01:24:49.099Z,19.88
2022-07-27T01:27:16.201Z,19.83
2022-07-27T01:29:43.452Z,19.82
2022-07-27T01:32:10.706Z,19.82
2022-07-27T01:34:37.693Z,19.81
2022-07-27T01:37:05.111Z,19.79
2022-07-27T01:39:32.288Z,19.75
2022-07-27T01:41:59.383Z,19.72
2022-07-27T01:44:26.635Z,19.73
2022-07-27T01:46:53.795Z,19.73
2022-07-27T01:49:20.968Z,19.71
2022-07-27T01:51:48.194Z,19.68
2022-07-27T01:54:15.489Z,19.67
2022-07-27T01:56:42.590Z,19.65
2022-07-27T01:59:16.732Z,19.64
2022-07-27T02:01:44.978Z,19.64
2022-07-27T02:04:12.327Z,19.60
2022-07-27T02:06:39.704Z,19.58
2022-07-27T02:09:06.941Z,19.60
2022-07-27T02:11:52.329Z,19.59
2022-07-27T02:14:21.387Z,19.54
2022-07-27T02:16:50.714Z,19.55
2022-07-27T02:19:18.354Z,19.53
2022-07-27T02:21:45.584Z,19.50
2022-07-27T02:24:12.716Z,19.52
2022-07-27T02:26:39.990Z,19.49
2022-07-27T02:29:07.044Z,19.46
2022-07-27T02:31:34.129Z,19.46
2022-07-27T02:34:01.353Z,19.43
2022-07-27T02:36:31.122Z,19.45
2022-07-27T02:38:58.330Z,19.44
2022-07-27T02:41:25.343Z,19.45
2022-07-27T02:43:52.434Z,19.42
2022-07-27T02:46:19.567Z,19.43
2022-07-27T02:48:46.916Z,19.41
2022-07-27T02:51:15.353Z,19.41
2022-07-27T02:53:42.544Z,19.41
2022-07-27T02:56:09.650Z,19.43
2022-07-27T02:58:37.683Z,19.43
2022-07-27T03:01:05.673Z,19.41
2022-07-27T03:03:36.109Z,19.42
2022-07-27T03:06:06.936Z,19.41
2022-07-27T03:08:34.693Z,19.40
2022-07-27T03:11:01.668Z,19.41
2022-07-27T03:13:29.249Z,19.42
2022-07-27T03:15:56.739Z,19.38
2022-07-27T03:18:24.021Z,19.38
2022-07-27T03:20:50.992Z,19.39
2022-07-27T03:23:18.679Z,19.39
2022-07-27T03:25:45.684Z,19.42
2022-07-27T03:28:12.728Z,19.41
2022-07-27T03:30:39.867Z,19.40
2022-07-27T03:33:07.012Z,19.42
2022-07-27T03:35:34.160Z,19.39
2022-07-27T03:38:01.404Z,19.40
2022-07-27T03:40:33.032Z,19.43
2022-07-27T03:43:00.606Z,19.40
2022-07-27T03:45:27.718Z,19.38
2022-07-27T03:47:54.954Z,19.38
2022-07-27T03:50:22.681Z,19.38
2022-07-27T03:52:50.173Z,19.42
2022-07-27T03:55:17.166Z,19.41
2022-07-27T03:57:44.227Z,19.40
2022-07-27T04:00:12.854Z,19.40
2022-07-27T04:02:40.782Z,19.43
2022-07-27T04:05:08.602Z,19.44
2022-07-27T04:07:35.836Z,19.43
2022-07-27T04:10:03.059Z,19.43
2022-07-27T04:12:30.954Z,19.46
2022-07-27T04:14:58.865Z,19.46
2022-07-27T04:17:56.119Z,19.47
2022-07-27T04:20:13.211Z,19.42
2022-07-27T04:22:41.794Z,19.46
2022-07-27T04:25:09.335Z,19.46
2022-07-27T04:27:36.428Z,19.48
2022-07-27T04:30:09.215Z,19.51
2022-07-27T04:32:36.896Z,19.47
2022-07-27T04:35:04.132Z,19.47
2022-07-27T04:37:32.531Z,19.50
2022-07-27T04:39:59.783Z,19.48
2022-07-27T04:42:26.882Z,19.48
2022-07-27T04:44:53.911Z,19.49
2022-07-27T04:47:21.037Z,19.52
2022-07-27T04:49:48.097Z,19.52
2022-07-27T04:52:16.215Z,19.51
2022-07-27T04:54:43.441Z,19.53
2022-07-27T04:57:10.568Z,19.54
2022-07-27T04:59:37.735Z,19.57
2022-07-27T05:02:04.872Z,19.58
2022-07-27T05:04:31.976Z,19.56
2022-07-27T05:06:59.122Z,19.57
2022-07-27T05:09:26.201Z,19.61
2022-07-27T05:11:53.387Z,19.64
2022-07-27T05:14:21.478Z,19.67
2022-07-27T05:16:49.723Z,19.65
2022-07-27T05:19:16.990Z,19.64
2022-07-27T05:21:44.152Z,19.69
2022-07-27T05:24:11.229Z,19.66
2022-07-27T05:26:38.434Z,19.68
2022-07-27T05:29:05.452Z,19.71
2022-07-27T05:31:32.706Z,19.70
2022-07-27T05:33:59.797Z,19.69
2022-07-27T05:36:27.881Z,19.73
2022-07-27T05:38:55.459Z,19.73
2022-07-27T05:41:26.262Z,19.74
2022-07-27T05:43:54.708Z,19.71
2022-07-27T05:46:22.405Z,19.75
2022-07-27T05:48:49.888Z,19.77
2022-07-27T05:52:02.202Z,19.76
2022-07-27T05:54:46.705Z,19.74
2022-07-27T05:57:25.027Z,19.79
2022-07-27T06:00:06.142Z,19.80
2022-07-27T06:02:38.977Z,19.83
2022-07-27T06:05:15.860Z,19.86
2022-07-27T06:08:00.152Z,19.88
2022-07-27T06:10:33.365Z,19.85
2022-07-27T06:13:05.862Z,19.91
2022-07-27T06:15:42.268Z,19.95
2022-07-27T06:18:17.054Z,19.97
2022-07-27T06:20:53.397Z,20.00
2022-07-27T06:23:22.892Z,20.07
2022-07-27T06:25:50.533Z,20.09
2022-07-27T06:28:20.148Z,20.15
2022-07-27T06:30:48.026Z,20.22
2022-07-27T06:33:15.479Z,20.29
2022-07-27T06:35:46.406Z,20.33
2022-07-27T06:38:14.817Z,20.40
2022-07-27T06:40:46.236Z,20.44
2022-07-27T06:43:19.341Z,20.49
2022-07-27T06:45:48.583Z,20.55
2022-07-27T06:48:17.355Z,20.63
2022-07-27T06:50:47.158Z,20.69
2022-07-27T06:53:18.995Z,20.78
2022-07-27T06:55:52.306Z,20.85
2022-07-27T06:58:20.314Z,20.89
2022-07-27T07:00:54.915Z,20.96
2022-07-27T07:03:22.079Z,21.03
2022-07-27T07:05:49.203Z,21.13
2022-07-27T07:08:16.440Z,21.17
2022-07-27T07:10:45.155Z,21.28
2022-07-27T07:13:12.264Z,21.32
2022-07-27T07:15:40.698Z,21.38
2022-07-27T07:18:07.979Z,21.44
2022-07-27T07:20:35.744Z,21.52
2022-07-27T07:23:03.987Z,21.60
2022-07-27T07:25:31.419Z,21.66
2022-07-27T07:27:58.711Z,21.74
2022-07-27T07:30:28.444Z,21.79
2022-07-27T07:33:03.125Z,21.87
2022-07-27T07:36:12.376Z,21.95
2022-07-27T07:39:57.518Z,21.94
2022-07-27T07:43:03.433Z,22.06
2022-07-27T07:45:35.578Z,22.19
2022-07-27T07:49:04.755Z,22.32
2022-07-27T07:52:08.664Z,22.38
2022-07-27T07:54:38.201Z,22.50
2022-07-27T07:57:42.676Z,22.66
2022-07-27T08:00:20.193Z,22.68
2022-07-27T08:02:48.679Z,22.85
2022-07-27T08:05:16.076Z,22.95
2022-07-27T08:07:43.657Z,23.04
2022-07-27T08:10:12.042Z,23.15
2022-07-27T08:12:40.681Z,23.22
2022-07-27T08:15:08.416Z,23.30
2022-07-27T08:17:35.413Z,23.37
2022-07-27T08:20:02.642Z,23.41
2022-07-27T08:22:29.564Z,23.48
2022-07-27T08:24:56.678Z,23.54
2022-07-27T08:27:23.731Z,23.62
2022-07-27T08:29:52.005Z,23.70
2022-07-27T08:32:19.408Z,23.72
2022-07-27T08:34:46.761Z,23.81
2022-07-27T08:37:19.127Z,23.87
2022-07-27T08:40:39.063Z,23.91
2022-07-27T08:44:05.560Z,23.93
2022-07-27T08:46:54.261Z,24.04
2022-07-27T08:49:55.875Z,24.15
2022-07-27T08:53:52.225Z,24.27
2022-07-27T08:56:52.955Z,24.38
2022-07-27T08:59:43.758Z,24.54
2022-07-27T09:20:24.942Z,25.36
2022-07-27T09:30:14.839Z,25.87
2022-07-27T09:37:16.839Z,26.14
2022-07-27T09:43:06.617Z,26.49
2022-07-27T09:46:19.459Z,26.63
2022-07-27T09:50:10.392Z,26.80
2022-07-27T09:53:19.682Z,27.00
2022-07-27T10:00:44.503Z,27.29
2022-07-27T10:16:58.212Z,28.22
2022-07-27T10:19:35.056Z,28.42
2022-07-27T10:22:09.361Z,28.49
2022-07-27T13:07:50.778Z,30.26
2022-07-27T13:10:41.079Z,30.26
2022-07-27T13:13:33.799Z,30.23
2022-07-27T13:45:05.572Z,30.03
2022-07-27T13:47:35.009Z,29.99
2022-07-27T14:07:28.251Z,29.83
2022-07-27T14:45:20.532Z,29.53
2022-07-27T14:47:48.555Z,29.59
2022-07-27T14:50:15.935Z,29.55
2022-07-27T14:52:46.486Z,29.57
2022-07-27T14:55:15.318Z,29.53
2022-07-27T14:58:14.526Z,29.50
2022-07-27T15:00:47.184Z,29.44
2022-07-27T15:24:11.590Z,29.05
2022-07-27T15:34:05.859Z,28.86
2022-07-27T15:44:00.547Z,28.70
2022-07-27T15:46:29.305Z,28.71
2022-07-27T15:48:59.684Z,28.75
2022-07-27T15:51:26.981Z,28.73
2022-07-27T15:54:11.157Z,28.73
2022-07-27T15:56:48.948Z,28.69
2022-07-27T15:59:25.656Z,28.69
2022-07-27T16:01:56.079Z,28.65
2022-07-27T16:04:27.523Z,28.64
2022-07-27T16:07:07.161Z,28.64
2022-07-27T16:09:49.060Z,28.63
2022-07-27T16:12:33.764Z,28.58
2022-07-27T16:15:24.527Z,28.54
2022-07-27T16:17:56.743Z,28.58
2022-07-27T16:30:34.026Z,28.20
2022-07-27T16:46:58.622Z,27.98
2022-07-27T16:52:47.852Z,27.97
2022-07-27T16:55:19.643Z,27.99
2022-07-27T16:57:49.772Z,28.03
2022-07-27T17:00:18.368Z,28.03
2022-07-27T17:02:47.668Z,28.01
2022-07-27T17:05:19.606Z,28.01
2022-07-27T17:07:52.573Z,27.96
2022-07-27T17:10:27.219Z,27.94
2022-07-27T17:13:13.479Z,27.95
2022-07-27T17:15:41.116Z,27.93
2022-07-27T17:18:11.470Z,27.94
2022-07-27T17:20:46.139Z,27.92
2022-07-27T17:23:41.369Z,27.88
2022-07-27T17:26:31.726Z,27.85
2022-07-27T17:29:02.552Z,27.85
2022-07-27T17:31:37.158Z,27.84
2022-07-27T17:34:08.584Z,27.85
2022-07-27T17:36:42.325Z,27.82
2022-07-27T17:40:35.290Z,27.80
2022-07-27T17:42:25.840Z,27.74
2022-07-27T17:44:55.591Z,27.77
2022-07-27T17:47:23.032Z,27.70
2022-07-27T17:49:53.384Z,27.70
2022-07-27T17:53:06.844Z,27.65
2022-07-27T17:55:41.483Z,27.60
2022-07-27T17:58:13.578Z,27.57
2022-07-27T18:00:46.313Z,27.55
2022-07-27T18:03:28.917Z,27.51
2022-07-27T18:06:35.151Z,27.45
2022-07-27T18:16:42.060Z,27.19
2022-07-27T18:19:09.510Z,27.16
2022-07-27T18:21:36.749Z,27.09
2022-07-27T18:24:04.427Z,27.04
2022-07-27T18:26:31.685Z,27.01
2022-07-27T18:28:58.695Z,26.95
2022-07-27T18:31:25.972Z,26.82
2022-07-27T18:33:54.601Z,26.79
2022-07-27T18:36:21.848Z,26.73
2022-07-27T18:38:57.964Z,26.66
2022-07-27T18:41:40.256Z,26.58
2022-07-27T18:57:24.933Z,26.13
2022-07-27T18:59:53.730Z,26.11
2022-07-27T19:02:21.003Z,26.07
2022-07-27T19:04:58.133Z,26.01
2022-07-27T19:07:37.492Z,25.98
2022-07-27T19:10:17.320Z,25.88
2022-07-27T19:12:47.589Z,25.85
2022-07-27T19:15:25.245Z,25.81
2022-07-27T19:20:46.180Z,25.73
2022-07-27T19:23:15.504Z,25.68
2022-07-27T19:25:43.723Z,25.64
2022-07-27T19:28:11.356Z,25.63
2022-07-27T19:30:42.044Z,25.58
2022-07-27T19:33:12.900Z,25.56
2022-07-27T19:35:40.156Z,25.50
2022-07-27T19:38:17.141Z,25.48
2022-07-27T19:40:50.155Z,25.41
2022-07-27T19:43:25.412Z,25.40
2022-07-27T19:45:55.345Z,25.35
2022-07-27T19:48:35.130Z,25.32
2022-07-27T19:51:12.961Z,25.25
2022-07-27T19:54:22.230Z,25.23
2022-07-27T20:00:31.796Z,25.09
2022-07-27T20:06:56.712Z,25.01
2022-07-27T20:09:39.404Z,24.96
2022-07-27T20:12:10.077Z,24.95
2022-07-27T20:14:38.027Z,24.93
2022-07-27T20:17:06.312Z,24.91
2022-07-27T20:19:33.773Z,24.88
2022-07-27T20:22:01.286Z,24.88
2022-07-27T20:24:28.741Z,24.84
2022-07-27T20:26:56.869Z,24.80
2022-07-27T20:29:24.342Z,24.79
2022-07-27T20:31:55.315Z,24.76
2022-07-27T20:34:23.645Z,24.75
2022-07-27T20:36:54.181Z,24.71
2022-07-27T20:39:21.651Z,24.68
2022-07-27T20:41:49.058Z,24.64
2022-07-27T20:44:16.142Z,24.61
2022-07-27T20:46:43.647Z,24.61
2022-07-27T20:49:11.150Z,24.56
2022-07-27T20:51:43.903Z,24.54
2022-07-27T20:54:11.130Z,24.47
2022-07-27T20:56:38.220Z,24.50
2022-07-27T20:59:07.571Z,24.46
2022-07-27T21:01:43.701Z,24.39
2022-07-27T21:04:10.926Z,24.37
2022-07-27T21:06:38.134Z,24.35
2022-07-27T21:09:05.264Z,24.35
2022-07-27T21:11:32.683Z,24.31
2022-07-27T21:13:59.751Z,24.29
2022-07-27T21:16:27.095Z,24.28
2022-07-27T21:18:54.251Z,24.22
2022-07-27T21:21:25.574Z,24.21
2022-07-27T21:24:13.323Z,23.97
2022-07-27T21:26:43.622Z,24.05
2022-07-27T21:29:11.727Z,24.08
2022-07-27T21:31:39.392Z,24.07
2022-07-27T21:34:07.337Z,24.07
2022-07-27T21:36:34.852Z,24.05
2022-07-27T21:39:02.054Z,24.00
2022-07-27T21:41:29.172Z,23.99
2022-07-27T21:43:56.360Z,23.98
2022-07-27T21:46:24.068Z,23.96
2022-07-27T21:57:10.101Z,23.71
2022-07-27T21:59:37.300Z,23.75
2022-07-27T22:02:04.373Z,23.77
2022-07-27T22:04:31.588Z,23.71
2022-07-27T22:06:58.689Z,23.69
2022-07-27T22:09:25.791Z,23.69
2022-07-27T22:11:52.893Z,23.66
2022-07-27T22:14:23.515Z,23.63
2022-07-27T22:16:50.704Z,23.63
2022-07-27T22:19:18.100Z,23.60
2022-07-27T22:21:45.213Z,23.55
2022-07-27T22:24:12.550Z,23.55
2022-07-27T22:26:40.232Z,23.51
2022-07-27T22:29:07.413Z,23.48
2022-07-27T22:31:34.491Z,23.48
2022-07-27T22:34:01.710Z,23.43
2022-07-27T22:36:28.720Z,23.42
2022-07-27T22:38:56.093Z,23.37
2022-07-27T22:41:23.364Z,23.34
2022-07-27T22:43:50.558Z,23.31
2022-07-27T22:46:19.900Z,23.30
2022-07-27T22:48:50.913Z,23.25
2022-07-27T22:51:18.023Z,23.24
2022-07-27T22:53:45.150Z,23.19
2022-07-27T22:56:12.328Z,23.17
2022-07-27T22:58:39.453Z,23.12
2022-07-27T23:01:06.557Z,23.09
2022-07-27T23:03:53.725Z,23.04
2022-07-27T23:06:21.090Z,23.04
2022-07-27T23:08:49.923Z,23.02
2022-07-27T23:11:19.353Z,23.02
2022-07-27T23:13:47.534Z,22.96
2022-07-27T23:16:14.963Z,22.92
2022-07-27T23:18:42.219Z,22.91
2022-07-27T23:21:09.456Z,22.86
2022-07-27T23:23:41.032Z,22.86
2022-07-27T23:26:25.865Z,22.78
2022-07-27T23:28:54.080Z,22.81
2022-07-27T23:31:22.007Z,22.76
2022-07-27T23:33:49.396Z,22.72
2022-07-27T23:36:16.806Z,22.72
2022-07-27T23:38:43.972Z,22.66
2022-07-27T23:41:10.998Z,22.63
2022-07-27T23:43:38.149Z,22.61
2022-07-27T23:46:07.257Z,22.58
2022-07-27T23:48:34.558Z,22.56
2022-07-27T23:51:01.688Z,22.52
2022-07-27T23:53:28.831Z,22.50
2022-07-27T23:55:55.955Z,22.47
2022-07-27T23:58:23.077Z,22.43
